Date,TemperatureHighF,TemperatureAvgF,TemperatureLowF,DewpointHighF,DewpointAvgF,DewpointLowF,HumidityHigh,HumidityAvg,HumidityLow,PressureMaxIn,PressureMinIn,WindSpeedMaxMPH,WindSpeedAvgMPH,GustSpeedMaxMPH,PrecipitationSumIn
2013-8-1,82.8,74.0,68.2,68.0,62.8,55.8,95,71,41,29.87,29.78,6,1,8,0.04
2013-8-2,79.7,71.7,61.0,64.0,59.2,54.1,89,66,44,29.93,29.78,7,1,8,0.00
2013-8-3,82.4,73.3,67.5,69.6,62.3,53.6,92,71,41,29.93,29.84,8,1,9,0.17
2013-8-4,78.3,69.1,61.7,61.0,53.9,47.3,84,61,37,30.05,29.90,10,2,10,0.00
2013-8-5,79.3,68.3,56.8,58.8,55.0,50.9,90,65,40,30.05,29.87,6,0,6,0.00
2013-8-6,84.9,74.5,65.7,61.2,57.9,55.4,76,58,39,29.93,29.81,6,0,6,0.00
2013-8-7,89.1,78.0,68.5,73.9,67.8,60.8,85,72,52,29.87,29.75,9,1,9,0.00
2013-8-8,88.0,75.9,72.0,75.2,70.9,66.4,94,85,58,29.87,29.78,7,0,9,0.99
2013-8-9,81.0,72.7,67.5,71.1,65.9,57.0,97,81,46,29.93,29.78,6,0,8,0.46
2013-8-10,86.2,75.4,67.3,67.3,64.4,60.4,94,71,44,30.02,29.93,6,0,6,0.00
2013-8-11,86.5,75.1,66.4,69.8,64.6,59.2,91,72,48,30.02,29.90,7,0,8,0.00
2013-8-12,87.6,75.8,64.4,67.1,64.1,61.2,92,69,43,30.02,29.78,11,1,11,0.00
2013-8-13,77.7,69.6,58.6,66.0,57.3,45.0,91,67,42,29.99,29.73,9,2,11,0.00
2013-8-14,71.1,61.4,53.1,50.0,47.0,42.4,79,61,41,30.11,29.96,9,1,9,0.00
2013-8-15,77.7,64.0,51.3,55.0,49.2,44.4,90,62,33,30.14,30.02,6,0,6,0.00
2013-8-16,77.4,66.7,55.9,55.6,51.4,47.5,86,61,35,30.11,30.02,8,1,9,0.00
2013-8-17,83.8,70.5,59.0,58.6,54.3,50.5,85,59,34,30.14,30.05,6,0,6,0.00
2013-8-18,83.5,70.5,61.5,63.1,59.5,54.5,85,70,45,30.11,30.02,6,0,6,0.00
2013-8-19,84.6,73.2,65.1,66.4,59.4,51.3,93,66,32,30.08,29.96,8,0,8,0.00
2013-8-20,86.4,73.8,61.9,68.5,60.4,57.0,91,66,40,30.14,30.02,5,0,6,0.00
2013-8-21,86.7,73.1,63.9,68.9,63.2,58.5,91,72,49,30.11,29.96,9,0,9,0.00
2013-8-22,87.6,75.4,65.5,71.1,65.5,61.9,92,73,48,30.02,29.90,9,1,12,0.00
2013-8-23,86.0,75.4,65.8,67.6,61.1,54.3,90,64,37,30.08,29.90,10,2,10,0.00
2013-8-24,86.4,72.1,58.8,58.6,55.0,51.3,84,58,32,30.26,30.08,4,0,5,0.00
2013-8-25,86.7,73.9,61.0,64.4,56.8,51.4,87,59,32,30.29,30.11,7,1,8,0.00
2013-8-26,90.1,76.9,63.1,68.4,62.4,57.6,89,63,40,30.20,29.93,7,1,9,0.00
2013-8-27,87.3,78.6,71.1,72.9,69.5,64.4,85,74,60,29.96,29.81,8,1,8,0.00
2013-8-28,88.3,80.6,73.4,72.9,70.1,68.2,85,71,54,29.87,29.75,10,1,11,0.00
2013-8-29,86.7,76.8,70.7,70.9,67.4,62.2,92,75,46,29.96,29.84,6,0,6,0.00
2013-8-30,90.5,78.0,66.7,71.6,65.5,60.6,93,68,40,29.90,29.73,10,1,10,0.00
2013-8-31,90.9,78.3,69.8,73.2,69.3,65.3,92,75,52,29.78,29.67,10,1,10,0.50